sensor_id;sensor_type;location;lat;lon;timestamp;P1;P2;P0
68841;PMS5003;55849;48.482;2.332;2024-01-27T05:43:46;9.75;6.75;6.00
68841;PMS5003;55849;48.482;2.332;2024-01-27T05:46:47;7.00;6.00;4.50
68841;PMS5003;55849;48.482;2.332;2024-01-27T05:49:49;6.25;5.00;3.00
68841;PMS5003;55849;48.482;2.332;2024-01-27T05:52:51;9.75;4.50;4.00
68841;PMS5003;55849;48.482;2.332;2024-01-27T05:55:53;9.00;6.25;5.50
68841;PMS5003;55849;48.482;2.332;2024-01-27T05:58:56;5.00;5.00;5.00
68841;PMS5003;55849;48.482;2.332;2024-01-27T06:01:57;10.00;6.00;4.00
68841;PMS5003;55849;48.482;2.332;2024-01-27T06:04:59;8.50;8.50;6.50
68841;PMS5003;55849;48.482;2.332;2024-01-27T06:08:00;11.75;9.50;4.50
68841;PMS5003;55849;48.482;2.332;2024-01-27T06:11:02;10.75;7.00;4.00
68841;PMS5003;55849;48.482;2.332;2024-01-27T06:14:05;9.25;9.25;7.00
68841;PMS5003;55849;48.482;2.332;2024-01-27T06:17:07;7.00;7.00;4.00
68841;PMS5003;55849;48.482;2.332;2024-01-27T06:20:09;10.75;8.00;6.25
68841;PMS5003;55849;48.482;2.332;2024-01-27T06:23:12;11.00;11.00;9.00
68841;PMS5003;55849;48.482;2.332;2024-01-27T06:26:13;9.75;7.00;6.50
68841;PMS5003;55849;48.482;2.332;2024-01-27T06:29:16;7.50;7.50;6.75
68841;PMS5003;55849;48.482;2.332;2024-01-27T06:32:18;12.75;9.00;6.00
68841;PMS5003;55849;48.482;2.332;2024-01-27T06:35:20;7.50;6.25;4.00
68841;PMS5003;55849;48.482;2.332;2024-01-27T06:38:21;13.00;9.75;7.00
68841;PMS5003;55849;48.482;2.332;2024-01-27T06:41:23;9.25;9.25;6.00
68841;PMS5003;55849;48.482;2.332;2024-01-27T06:44:26;9.50;9.50;6.25
68841;PMS5003;55849;48.482;2.332;2024-01-27T06:47:28;11.00;9.25;6.75
68841;PMS5003;55849;48.482;2.332;2024-01-27T06:50:30;7.75;7.50;4.50
68841;PMS5003;55849;48.482;2.332;2024-01-27T06:53:32;14.50;9.75;4.00
68841;PMS5003;55849;48.482;2.332;2024-01-27T06:56:33;16.50;12.25;9.00
68841;PMS5003;55849;48.482;2.332;2024-01-27T06:59:36;22.50;17.00;11.50
68841;PMS5003;55849;48.482;2.332;2024-01-27T07:02:38;22.00;15.00;9.00
68841;PMS5003;55849;48.482;2.332;2024-01-27T07:05:39;11.00;9.00;3.00
68841;PMS5003;55849;48.482;2.332;2024-01-27T07:08:41;13.00;11.00;8.00
68841;PMS5003;55849;48.482;2.332;2024-01-27T07:11:43;11.75;9.25;4.50
68841;PMS5003;55849;48.482;2.332;2024-01-27T07:14:46;8.50;8.50;5.00
68841;PMS5003;55849;48.482;2.332;2024-01-27T07:17:47;12.25;9.00;6.25
68841;PMS5003;55849;48.482;2.332;2024-01-27T07:20:49;9.50;6.75;3.25
68841;PMS5003;55849;48.482;2.332;2024-01-27T07:23:51;9.00;9.00;6.25
68841;PMS5003;55849;48.482;2.332;2024-01-27T07:26:53;11.50;10.00;7.50
68841;PMS5003;55849;48.482;2.332;2024-01-27T07:29:56;13.25;8.00;6.00
68841;PMS5003;55849;48.482;2.332;2024-01-27T07:32:58;9.00;9.00;6.25
68841;PMS5003;55849;48.482;2.332;2024-01-27T07:36:00;15.50;12.00;7.00
68841;PMS5003;55849;48.482;2.332;2024-01-27T07:39:01;15.25;12.25;8.00
68841;PMS5003;55849;48.482;2.332;2024-01-27T07:42:04;13.00;9.25;6.00
68841;PMS5003;55849;48.482;2.332;2024-01-27T07:45:08;9.50;8.00;5.50
68841;PMS5003;55849;48.482;2.332;2024-01-27T07:48:09;4.50;4.00;3.00
68841;PMS5003;55849;48.482;2.332;2024-01-27T07:51:11;6.00;6.00;4.00
68841;PMS5003;55849;48.482;2.332;2024-01-27T07:54:13;9.50;7.50;6.50
68841;PMS5003;55849;48.482;2.332;2024-01-27T07:57:14;11.25;10.00;4.00
68841;PMS5003;55849;48.482;2.332;2024-01-27T08:00:17;8.50;8.50;6.00
68841;PMS5003;55849;48.482;2.332;2024-01-27T08:03:19;8.50;6.75;6.00
68841;PMS5003;55849;48.482;2.332;2024-01-27T08:06:27;12.00;9.50;7.00
68841;PMS5003;55849;48.482;2.332;2024-01-27T08:09:30;13.50;4.50;3.00
68841;PMS5003;55849;48.482;2.332;2024-01-27T08:12:31;12.50;12.50;9.25
68841;PMS5003;55849;48.482;2.332;2024-01-27T08:15:34;23.00;20.50;14.00
68841;PMS5003;55849;48.482;2.332;2024-01-27T08:18:36;46.25;44.00;29.00
68841;PMS5003;55849;48.482;2.332;2024-01-27T08:21:38;47.50;37.00;24.50
68841;PMS5003;55849;48.482;2.332;2024-01-27T08:24:40;26.25;13.75;6.00
68841;PMS5003;55849;48.482;2.332;2024-01-27T08:27:41;48.25;36.75;25.00
68841;PMS5003;55849;48.482;2.332;2024-01-27T08:30:45;32.00;25.75;15.00
68841;PMS5003;55849;48.482;2.332;2024-01-27T08:33:46;6.50;3.25;0.50
68841;PMS5003;55849;48.482;2.332;2024-01-27T08:36:48;29.25;18.50;14.00
68841;PMS5003;55849;48.482;2.332;2024-01-27T08:39:49;24.25;20.50;11.50
68841;PMS5003;55849;48.482;2.332;2024-01-27T08:42:51;21.50;19.00;11.25
68841;PMS5003;55849;48.482;2.332;2024-01-27T08:45:54;16.50;15.25;12.00
68841;PMS5003;55849;48.482;2.332;2024-01-27T08:48:56;36.75;32.50;21.75
68841;PMS5003;55849;48.482;2.332;2024-01-27T08:51:58;38.75;30.75;22.00
68841;PMS5003;55849;48.482;2.332;2024-01-27T08:55:00;48.75;34.75;24.00
68841;PMS5003;55849;48.482;2.332;2024-01-27T08:58:01;33.50;33.50;24.00
68841;PMS5003;55849;48.482;2.332;2024-01-27T09:01:04;39.50;30.75;21.75
68841;PMS5003;55849;48.482;2.332;2024-01-27T09:04:08;33.75;24.75;15.50
68841;PMS5003;55849;48.482;2.332;2024-01-27T09:07:11;23.00;21.50;16.00
68841;PMS5003;55849;48.482;2.332;2024-01-27T09:10:12;26.50;19.00;12.00
68841;PMS5003;55849;48.482;2.332;2024-01-27T09:13:15;33.00;28.00;20.00
68841;PMS5003;55849;48.482;2.332;2024-01-27T09:16:18;36.50;27.75;18.25
68841;PMS5003;55849;48.482;2.332;2024-01-27T09:19:20;25.50;23.00;12.50
68841;PMS5003;55849;48.482;2.332;2024-01-27T09:22:22;40.75;33.25;19.00
68841;PMS5003;55849;48.482;2.332;2024-01-27T09:25:23;43.75;38.75;26.75
68841;PMS5003;55849;48.482;2.332;2024-01-27T09:28:26;38.25;30.00;18.00
68841;PMS5003;55849;48.482;2.332;2024-01-27T09:31:29;40.00;30.75;21.00
68841;PMS5003;55849;48.482;2.332;2024-01-27T09:34:30;33.50;28.00;18.50
68841;PMS5003;55849;48.482;2.332;2024-01-27T09:37:32;35.00;32.25;20.75
68841;PMS5003;55849;48.482;2.332;2024-01-27T09:40:33;32.00;25.50;18.75
68841;PMS5003;55849;48.482;2.332;2024-01-27T09:43:35;29.25;22.50;16.75
68841;PMS5003;55849;48.482;2.332;2024-01-27T09:46:40;21.75;11.50;3.00
68841;PMS5003;55849;48.482;2.332;2024-01-27T09:49:42;24.25;20.25;12.25
68841;PMS5003;55849;48.482;2.332;2024-01-27T09:52:44;24.50;21.00;15.75
68841;PMS5003;55849;48.482;2.332;2024-01-27T09:55:45;32.50;23.50;15.25
68841;PMS5003;55849;48.482;2.332;2024-01-27T09:58:47;36.00;27.00;17.75
68841;PMS5003;55849;48.482;2.332;2024-01-27T10:01:51;29.50;25.50;19.00
68841;PMS5003;55849;48.482;2.332;2024-01-27T10:04:53;26.50;20.25;14.00
68841;PMS5003;55849;48.482;2.332;2024-01-27T10:07:55;26.50;21.75;14.50
68841;PMS5003;55849;48.482;2.332;2024-01-27T10:10:57;28.75;22.00;15.75
68841;PMS5003;55849;48.482;2.332;2024-01-27T10:13:58;19.00;18.75;10.00
68841;PMS5003;55849;48.482;2.332;2024-01-27T10:17:02;23.25;23.25;17.00
68841;PMS5003;55849;48.482;2.332;2024-01-27T10:20:04;26.00;23.50;17.00
68841;PMS5003;55849;48.482;2.332;2024-01-27T10:23:10;28.00;20.00;15.75
68841;PMS5003;55849;48.482;2.332;2024-01-27T10:26:12;25.25;18.00;15.50
68841;PMS5003;55849;48.482;2.332;2024-01-27T10:29:14;18.00;16.00;13.50
68841;PMS5003;55849;48.482;2.332;2024-01-27T10:32:17;17.50;16.25;10.50
68841;PMS5003;55849;48.482;2.332;2024-01-27T10:35:18;15.25;13.00;9.00
68841;PMS5003;55849;48.482;2.332;2024-01-27T10:38:20;8.75;8.50;6.50
68841;PMS5003;55849;48.482;2.332;2024-01-27T10:41:22;11.50;11.00;6.00
68841;PMS5003;55849;48.482;2.332;2024-01-27T10:44:26;9.50;9.00;6.75
68841;PMS5003;55849;48.482;2.332;2024-01-27T10:47:31;16.50;12.25;9.25
68841;PMS5003;55849;48.482;2.332;2024-01-27T10:50:34;14.00;8.00;6.00
68841;PMS5003;55849;48.482;2.332;2024-01-27T10:53:37;10.00;10.00;6.75
68841;PMS5003;55849;48.482;2.332;2024-01-27T10:56:41;9.00;8.50;6.00
68841;PMS5003;55849;48.482;2.332;2024-01-27T10:59:43;10.00;9.00;5.00
68841;PMS5003;55849;48.482;2.332;2024-01-27T11:02:47;16.00;10.00;6.50
68841;PMS5003;55849;48.482;2.332;2024-01-27T11:05:53;13.50;9.75;7.00
68841;PMS5003;55849;48.482;2.332;2024-01-27T11:08:56;19.75;15.00;12.00
68841;PMS5003;55849;48.482;2.332;2024-01-27T11:11:58;21.75;13.00;7.00
68841;PMS5003;55849;48.482;2.332;2024-01-27T11:15:01;11.00;11.00;9.25
68841;PMS5003;55849;48.482;2.332;2024-01-27T11:18:05;21.50;16.00;12.00
68841;PMS5003;55849;48.482;2.332;2024-01-27T11:21:07;17.00;14.00;10.50
68841;PMS5003;55849;48.482;2.332;2024-01-27T11:24:15;14.00;14.00;9.75
68841;PMS5003;55849;48.482;2.332;2024-01-27T11:27:17;19.75;10.00;6.25
68841;PMS5003;55849;48.482;2.332;2024-01-27T11:30:25;13.25;10.00;6.25
68841;PMS5003;55849;48.482;2.332;2024-01-27T11:33:30;12.75;11.25;6.50
68841;PMS5003;55849;48.482;2.332;2024-01-27T11:36:32;11.25;11.00;9.50
68841;PMS5003;55849;48.482;2.332;2024-01-27T11:39:34;20.50;20.00;15.00
68841;PMS5003;55849;48.482;2.332;2024-01-27T11:42:37;24.50;15.25;9.00
68841;PMS5003;55849;48.482;2.332;2024-01-27T11:45:39;4.00;3.25;1.00
68841;PMS5003;55849;48.482;2.332;2024-01-27T11:48:42;21.50;12.75;10.00
68841;PMS5003;55849;48.482;2.332;2024-01-27T11:51:44;8.50;8.50;6.00
68841;PMS5003;55849;48.482;2.332;2024-01-27T11:54:46;6.25;6.00;4.00
68841;PMS5003;55849;48.482;2.332;2024-01-27T11:57:47;9.00;8.00;3.25
68841;PMS5003;55849;48.482;2.332;2024-01-27T12:00:49;5.50;5.00;3.00
68841;PMS5003;55849;48.482;2.332;2024-01-27T12:03:52;29.00;23.00;17.50
68841;PMS5003;55849;48.482;2.332;2024-01-27T12:06:54;6.00;6.00;4.50
68841;PMS5003;55849;48.482;2.332;2024-01-27T12:09:56;11.00;8.00;5.50
68841;PMS5003;55849;48.482;2.332;2024-01-27T12:12:58;2.00;2.00;1.00
68841;PMS5003;55849;48.482;2.332;2024-01-27T12:15:59;7.00;7.00;4.00
68841;PMS5003;55849;48.482;2.332;2024-01-27T12:19:02;7.50;3.75;3.00
68841;PMS5003;55849;48.482;2.332;2024-01-27T12:22:04;3.00;3.00;1.00
68841;PMS5003;55849;48.482;2.332;2024-01-27T12:25:20;1.00;1.00;1.00
68841;PMS5003;55849;48.482;2.332;2024-01-27T12:28:22;4.50;3.00;2.50
68841;PMS5003;55849;48.482;2.332;2024-01-27T12:31:24;3.50;3.00;1.00
68841;PMS5003;55849;48.482;2.332;2024-01-27T12:34:28;3.50;3.50;1.50
68841;PMS5003;55849;48.482;2.332;2024-01-27T12:37:30;4.50;1.50;1.00
68841;PMS5003;55849;48.482;2.332;2024-01-27T12:40:31;5.50;2.50;1.00
68841;PMS5003;55849;48.482;2.332;2024-01-27T13:12:06;1.00;0.75;0.75
68841;PMS5003;55849;48.482;2.332;2024-01-27T13:15:08;2.75;1.50;1.00
68841;PMS5003;55849;48.482;2.332;2024-01-27T13:18:10;1.00;1.00;0.00
68841;PMS5003;55849;48.482;2.332;2024-01-27T13:21:12;2.25;1.00;1.00
68841;PMS5003;55849;48.482;2.332;2024-01-27T13:24:14;1.00;1.00;1.00
68841;PMS5003;55849;48.482;2.332;2024-01-27T13:27:17;5.50;5.50;3.25
68841;PMS5003;55849;48.482;2.332;2024-01-27T13:30:18;2.33;2.33;1.00
68841;PMS5003;55849;48.482;2.332;2024-01-27T13:33:20;3.75;2.75;1.00
68841;PMS5003;55849;48.482;2.332;2024-01-27T13:36:22;0.50;0.50;0.00
68841;PMS5003;55849;48.482;2.332;2024-01-27T13:39:23;2.00;2.00;1.00
68841;PMS5003;55849;48.482;2.332;2024-01-27T13:42:26;3.00;3.00;1.00
68841;PMS5003;55849;48.482;2.332;2024-01-27T13:45:28;1.00;1.00;0.50
68841;PMS5003;55849;48.482;2.332;2024-01-27T13:48:30;3.00;3.00;1.00
68841;PMS5003;55849;48.482;2.332;2024-01-27T13:51:31;1.00;1.00;0.00
68841;PMS5003;55849;48.482;2.332;2024-01-27T13:54:33;3.00;0.25;0.00
68841;PMS5003;55849;48.482;2.332;2024-01-27T13:57:37;0.00;0.00;0.00
68841;PMS5003;55849;48.482;2.332;2024-01-27T14:00:39;2.50;0.50;0.00
68841;PMS5003;55849;48.482;2.332;2024-01-27T14:03:40;1.00;1.00;1.00
68841;PMS5003;55849;48.482;2.332;2024-01-27T14:06:42;3.75;3.00;1.00
68841;PMS5003;55849;48.482;2.332;2024-01-27T14:09:44;4.00;3.25;1.00
68841;PMS5003;55849;48.482;2.332;2024-01-27T14:12:47;0.00;0.00;0.00
68841;PMS5003;55849;48.482;2.332;2024-01-27T14:15:48;0.00;0.00;0.00
68841;PMS5003;55849;48.482;2.332;2024-01-27T14:18:50;0.00;0.00;0.00
68841;PMS5003;55849;48.482;2.332;2024-01-27T14:21:52;1.00;1.00;0.00
68841;PMS5003;55849;48.482;2.332;2024-01-27T14:24:53;1.00;1.00;0.00
68841;PMS5003;55849;48.482;2.332;2024-01-27T14:27:56;0.25;0.25;0.00
68841;PMS5003;55849;48.482;2.332;2024-01-27T14:30:58;2.00;2.00;0.00
68841;PMS5003;55849;48.482;2.332;2024-01-27T14:33:59;1.00;1.00;0.00
68841;PMS5003;55849;48.482;2.332;2024-01-27T14:37:01;1.00;1.00;1.00
68841;PMS5003;55849;48.482;2.332;2024-01-27T14:40:03;6.00;1.00;0.25
68841;PMS5003;55849;48.482;2.332;2024-01-27T14:43:06;1.00;1.00;0.00
68841;PMS5003;55849;48.482;2.332;2024-01-27T14:46:11;2.00;0.75;0.00
68841;PMS5003;55849;48.482;2.332;2024-01-27T14:49:13;1.00;1.00;0.25
68841;PMS5003;55849;48.482;2.332;2024-01-27T14:52:15;0.00;0.00;0.00
68841;PMS5003;55849;48.482;2.332;2024-01-27T14:55:16;0.00;0.00;0.00
68841;PMS5003;55849;48.482;2.332;2024-01-27T14:58:19;0.00;0.00;0.00
68841;PMS5003;55849;48.482;2.332;2024-01-27T15:01:22;0.00;0.00;0.00
68841;PMS5003;55849;48.482;2.332;2024-01-27T15:04:24;1.50;1.50;0.75
68841;PMS5003;55849;48.482;2.332;2024-01-27T15:07:26;2.25;0.00;0.00
68841;PMS5003;55849;48.482;2.332;2024-01-27T15:10:29;0.00;0.00;0.00
68841;PMS5003;55849;48.482;2.332;2024-01-27T15:13:32;3.00;3.00;1.00
68841;PMS5003;55849;48.482;2.332;2024-01-27T15:16:34;1.00;0.00;0.00
68841;PMS5003;55849;48.482;2.332;2024-01-27T15:19:36;4.50;1.00;1.00
68841;PMS5003;55849;48.482;2.332;2024-01-27T15:22:37;0.75;0.75;0.25
68841;PMS5003;55849;48.482;2.332;2024-01-27T15:25:39;1.00;0.00;0.00
68841;PMS5003;55849;48.482;2.332;2024-01-27T15:28:42;1.00;1.00;0.00
68841;PMS5003;55849;48.482;2.332;2024-01-27T15:31:44;0.25;0.25;0.00
68841;PMS5003;55849;48.482;2.332;2024-01-27T15:34:46;0.75;0.00;0.00
68841;PMS5003;55849;48.482;2.332;2024-01-27T15:37:48;1.00;1.00;0.75
68841;PMS5003;55849;48.482;2.332;2024-01-27T15:40:50;0.00;0.00;0.00
68841;PMS5003;55849;48.482;2.332;2024-01-27T15:43:53;1.50;1.00;0.25
68841;PMS5003;55849;48.482;2.332;2024-01-27T15:46:55;1.00;0.00;0.00
68841;PMS5003;55849;48.482;2.332;2024-01-27T15:49:58;4.00;1.00;0.75
68841;PMS5003;55849;48.482;2.332;2024-01-27T15:53:03;2.25;0.75;0.00
68841;PMS5003;55849;48.482;2.332;2024-01-27T15:56:05;3.00;1.00;0.00
68841;PMS5003;55849;48.482;2.332;2024-01-27T15:59:09;0.00;0.00;0.00
68841;PMS5003;55849;48.482;2.332;2024-01-27T16:02:11;6.25;3.00;1.00
68841;PMS5003;55849;48.482;2.332;2024-01-27T16:05:13;3.00;3.00;1.00
68841;PMS5003;55849;48.482;2.332;2024-01-27T16:08:15;4.00;3.00;1.00
68841;PMS5003;55849;48.482;2.332;2024-01-27T16:11:17;3.00;3.00;2.50
68841;PMS5003;55849;48.482;2.332;2024-01-27T16:14:20;0.75;0.75;0.00
68841;PMS5003;55849;48.482;2.332;2024-01-27T16:17:23;3.25;1.00;0.50
68841;PMS5003;55849;48.482;2.332;2024-01-27T16:20:25;0.75;0.75;0.75
68841;PMS5003;55849;48.482;2.332;2024-01-27T16:23:27;4.00;4.00;3.00
68841;PMS5003;55849;48.482;2.332;2024-01-27T16:26:28;3.50;3.50;2.00
68841;PMS5003;55849;48.482;2.332;2024-01-27T16:29:31;3.00;3.00;3.00
68841;PMS5003;55849;48.482;2.332;2024-01-27T16:32:33;5.75;4.00;4.00
68841;PMS5003;55849;48.482;2.332;2024-01-27T16:35:35;5.50;3.00;1.00
68841;PMS5003;55849;48.482;2.332;2024-01-27T16:38:36;3.25;1.00;1.00
68841;PMS5003;55849;48.482;2.332;2024-01-27T16:41:39;11.00;6.00;4.00
68841;PMS5003;55849;48.482;2.332;2024-01-27T16:44:42;13.50;9.25;7.00
68841;PMS5003;55849;48.482;2.332;2024-01-27T16:47:44;9.75;9.25;5.50
68841;PMS5003;55849;48.482;2.332;2024-01-27T16:50:46;6.25;6.00;4.00
68841;PMS5003;55849;48.482;2.332;2024-01-27T16:53:49;8.25;8.25;6.00
68841;PMS5003;55849;48.482;2.332;2024-01-27T16:56:50;15.50;11.75;8.00
68841;PMS5003;55849;48.482;2.332;2024-01-27T16:59:53;14.75;12.00;7.00
68841;PMS5003;55849;48.482;2.332;2024-01-27T17:02:56;18.00;14.00;9.00
68841;PMS5003;55849;48.482;2.332;2024-01-27T17:05:58;11.75;10.50;9.00
68841;PMS5003;55849;48.482;2.332;2024-01-27T17:09:01;15.50;12.75;9.75
68841;PMS5003;55849;48.482;2.332;2024-01-27T17:12:03;21.25;13.50;11.00
68841;PMS5003;55849;48.482;2.332;2024-01-27T17:15:08;16.75;13.00;9.25
68841;PMS5003;55849;48.482;2.332;2024-01-27T17:18:10;29.75;18.00;12.75
68841;PMS5003;55849;48.482;2.332;2024-01-27T17:21:11;21.75;18.50;13.50
68841;PMS5003;55849;48.482;2.332;2024-01-27T17:24:13;22.50;20.25;14.50
68841;PMS5003;55849;48.482;2.332;2024-01-27T17:27:15;20.75;18.75;13.50
68841;PMS5003;55849;48.482;2.332;2024-01-27T17:30:19;43.00;29.75;19.00
68841;PMS5003;55849;48.482;2.332;2024-01-27T17:33:21;33.25;30.50;21.75
68841;PMS5003;55849;48.482;2.332;2024-01-27T17:36:22;42.75;29.50;21.00
68841;PMS5003;55849;48.482;2.332;2024-01-27T17:39:24;33.75;33.75;23.00
68841;PMS5003;55849;48.482;2.332;2024-01-27T17:42:25;46.25;36.50;21.75
68841;PMS5003;55849;48.482;2.332;2024-01-27T17:45:29;36.00;34.25;20.50
68841;PMS5003;55849;48.482;2.332;2024-01-27T17:48:31;37.50;29.75;21.75
68841;PMS5003;55849;48.482;2.332;2024-01-27T17:51:32;34.50;23.25;15.75
68841;PMS5003;55849;48.482;2.332;2024-01-27T17:54:34;32.50;24.00;16.00
68841;PMS5003;55849;48.482;2.332;2024-01-27T17:57:36;27.25;24.00;15.25
68841;PMS5003;55849;48.482;2.332;2024-01-27T18:00:40;23.25;19.00;12.75
68841;PMS5003;55849;48.482;2.332;2024-01-27T18:03:41;18.75;14.00;8.50
68841;PMS5003;55849;48.482;2.332;2024-01-27T18:06:43;18.25;14.75;11.00
68841;PMS5003;55849;48.482;2.332;2024-01-27T18:09:44;25.00;18.00;12.00
68841;PMS5003;55849;48.482;2.332;2024-01-27T18:12:46;26.00;21.25;13.25
68841;PMS5003;55849;48.482;2.332;2024-01-27T18:15:49;32.50;25.50;17.50
68841;PMS5003;55849;48.482;2.332;2024-01-27T18:18:51;33.00;24.75;18.00
68841;PMS5003;55849;48.482;2.332;2024-01-27T18:21:52;36.00;28.00;21.25
68841;PMS5003;55849;48.482;2.332;2024-01-27T18:24:55;32.75;26.50;19.00
68841;PMS5003;55849;48.482;2.332;2024-01-27T18:27:57;41.00;28.75;20.00
68841;PMS5003;55849;48.482;2.332;2024-01-27T18:31:01;35.50;28.50;21.75
68841;PMS5003;55849;48.482;2.332;2024-01-27T18:34:02;34.50;32.00;22.50
68841;PMS5003;55849;48.482;2.332;2024-01-27T18:37:04;41.50;31.50;22.50
68841;PMS5003;55849;48.482;2.332;2024-01-27T18:40:06;59.00;47.00;30.25
68841;PMS5003;55849;48.482;2.332;2024-01-27T18:43:08;34.75;25.50;16.00
68841;PMS5003;55849;48.482;2.332;2024-01-27T18:46:11;22.50;21.75;15.50
68841;PMS5003;55849;48.482;2.332;2024-01-27T18:49:13;19.75;17.75;9.50
68841;PMS5003;55849;48.482;2.332;2024-01-27T18:52:15;29.50;21.50;16.00
68841;PMS5003;55849;48.482;2.332;2024-01-27T18:55:16;24.50;20.00;15.00
68841;PMS5003;55849;48.482;2.332;2024-01-27T18:58:18;21.25;19.00;13.50
68841;PMS5003;55849;48.482;2.332;2024-01-27T19:01:23;24.00;22.00;14.00
68841;PMS5003;55849;48.482;2.332;2024-01-27T19:04:24;29.75;22.00;15.25
68841;PMS5003;55849;48.482;2.332;2024-01-27T19:07:26;15.50;15.50;13.00
68841;PMS5003;55849;48.482;2.332;2024-01-27T19:10:28;16.00;15.00;10.00
68841;PMS5003;55849;48.482;2.332;2024-01-27T19:13:29;12.50;12.50;10.00
68841;PMS5003;55849;48.482;2.332;2024-01-27T19:16:32;23.00;21.00;15.00
68841;PMS5003;55849;48.482;2.332;2024-01-27T19:19:34;18.75;16.50;12.25
68841;PMS5003;55849;48.482;2.332;2024-01-27T19:22:36;7.00;7.00;6.00
68841;PMS5003;55849;48.482;2.332;2024-01-27T19:25:37;17.25;15.50;12.00
68841;PMS5003;55849;48.482;2.332;2024-01-27T19:28:41;15.75;11.75;7.50
68841;PMS5003;55849;48.482;2.332;2024-01-27T19:31:44;12.50;12.50;9.75
68841;PMS5003;55849;48.482;2.332;2024-01-27T19:34:47;9.00;9.00;6.00
68841;PMS5003;55849;48.482;2.332;2024-01-27T19:37:49;1.00;0.00;0.00
68841;PMS5003;55849;48.482;2.332;2024-01-27T19:40:50;10.50;7.50;5.50
68841;PMS5003;55849;48.482;2.332;2024-01-27T19:43:52;8.50;6.50;4.00
68841;PMS5003;55849;48.482;2.332;2024-01-27T19:46:55;35.00;30.50;21.25
68841;PMS5003;55849;48.482;2.332;2024-01-27T19:49:56;19.50;16.50;10.00
68841;PMS5003;55849;48.482;2.332;2024-01-27T19:52:58;15.00;12.00;9.00
68841;PMS5003;55849;48.482;2.332;2024-01-27T19:56:00;11.50;10.00;9.00
68841;PMS5003;55849;48.482;2.332;2024-01-27T19:59:02;9.25;9.25;6.00
68841;PMS5003;55849;48.482;2.332;2024-01-27T20:02:05;12.75;11.50;8.00
68841;PMS5003;55849;48.482;2.332;2024-01-27T20:05:07;8.00;8.00;6.00
68841;PMS5003;55849;48.482;2.332;2024-01-27T20:08:09;6.50;4.00;1.00
68841;PMS5003;55849;48.482;2.332;2024-01-27T20:11:10;12.25;12.25;9.00
68841;PMS5003;55849;48.482;2.332;2024-01-27T20:14:12;29.50;23.25;15.00
68841;PMS5003;55849;48.482;2.332;2024-01-27T20:17:15;69.50;49.00;30.75
68841;PMS5003;55849;48.482;2.332;2024-01-27T20:20:17;38.50;29.50;19.00
68841;PMS5003;55849;48.482;2.332;2024-01-27T20:23:19;18.50;17.00;10.00
68841;PMS5003;55849;48.482;2.332;2024-01-27T20:26:20;15.50;12.75;10.00
68841;PMS5003;55849;48.482;2.332;2024-01-27T20:29:22;11.25;8.75;6.00
68841;PMS5003;55849;48.482;2.332;2024-01-27T20:32:25;13.75;10.50;6.50
68841;PMS5003;55849;48.482;2.332;2024-01-27T20:35:27;8.50;6.25;5.00
68841;PMS5003;55849;48.482;2.332;2024-01-27T20:38:29;22.75;19.75;13.25
68841;PMS5003;55849;48.482;2.332;2024-01-27T20:41:31;24.00;19.50;13.00
68841;PMS5003;55849;48.482;2.332;2024-01-27T20:44:33;22.00;16.50;10.00
68841;PMS5003;55849;48.482;2.332;2024-01-27T20:47:36;3.00;3.00;3.00
68841;PMS5003;55849;48.482;2.332;2024-01-27T20:50:38;7.00;7.00;6.00
68841;PMS5003;55849;48.482;2.332;2024-01-27T20:53:39;10.50;10.00;7.25
68841;PMS5003;55849;48.482;2.332;2024-01-27T20:56:41;9.50;6.00;4.00
68841;PMS5003;55849;48.482;2.332;2024-01-27T20:59:42;10.50;9.75;7.00
68841;PMS5003;55849;48.482;2.332;2024-01-27T21:02:45;14.00;12.00;8.50
68841;PMS5003;55849;48.482;2.332;2024-01-27T21:05:47;12.25;12.00;7.00
68841;PMS5003;55849;48.482;2.332;2024-01-27T21:08:48;6.75;6.75;6.00
68841;PMS5003;55849;48.482;2.332;2024-01-27T21:11:50;15.00;10.00;7.00
68841;PMS5003;55849;48.482;2.332;2024-01-27T21:14:52;18.00;12.75;8.00
68841;PMS5003;55849;48.482;2.332;2024-01-27T21:17:55;25.00;18.50;12.25
68841;PMS5003;55849;48.482;2.332;2024-01-27T21:20:57;45.50;34.00;21.00
68841;PMS5003;55849;48.482;2.332;2024-01-27T21:23:59;22.25;19.75;12.00
68841;PMS5003;55849;48.482;2.332;2024-01-27T21:27:00;11.00;9.00;6.00
68841;PMS5003;55849;48.482;2.332;2024-01-27T21:30:02;7.00;7.00;6.00
68841;PMS5003;55849;48.482;2.332;2024-01-27T21:33:09;5.00;5.00;4.00
68841;PMS5003;55849;48.482;2.332;2024-01-27T21:36:11;6.75;6.75;6.75
68841;PMS5003;55849;48.482;2.332;2024-01-27T21:39:12;9.25;9.25;7.00
68841;PMS5003;55849;48.482;2.332;2024-01-27T21:42:15;8.00;6.25;3.00
68841;PMS5003;55849;48.482;2.332;2024-01-27T21:45:17;14.50;12.25;8.00
68841;PMS5003;55849;48.482;2.332;2024-01-27T21:48:20;12.25;8.00;6.75
68841;PMS5003;55849;48.482;2.332;2024-01-27T21:51:22;12.25;10.00;7.00
68841;PMS5003;55849;48.482;2.332;2024-01-27T21:54:24;7.00;7.00;6.00
68841;PMS5003;55849;48.482;2.332;2024-01-27T21:57:28;12.25;10.50;6.75
68841;PMS5003;55849;48.482;2.332;2024-01-27T22:00:30;10.50;8.75;6.00
68841;PMS5003;55849;48.482;2.332;2024-01-27T22:03:33;10.00;10.00;7.50
68841;PMS5003;55849;48.482;2.332;2024-01-27T22:06:37;17.50;15.75;9.75
68841;PMS5003;55849;48.482;2.332;2024-01-27T22:09:39;16.50;16.50;10.00
68841;PMS5003;55849;48.482;2.332;2024-01-27T22:12:41;6.50;6.50;6.00
68841;PMS5003;55849;48.482;2.332;2024-01-27T22:15:42;9.00;9.00;7.00
68841;PMS5003;55849;48.482;2.332;2024-01-27T22:18:45;11.00;8.50;6.00
68841;PMS5003;55849;48.482;2.332;2024-01-27T22:21:48;13.00;10.00;7.50
68841;PMS5003;55849;48.482;2.332;2024-01-27T22:24:53;16.50;12.50;8.50
68841;PMS5003;55849;48.482;2.332;2024-01-27T22:27:55;15.25;12.25;8.00
68841;PMS5003;55849;48.482;2.332;2024-01-27T22:30:56;16.75;10.00;7.00
68841;PMS5003;55849;48.482;2.332;2024-01-27T22:33:59;15.25;10.50;6.50
68841;PMS5003;55849;48.482;2.332;2024-01-27T22:37:01;26.50;21.75;13.00
68841;PMS5003;55849;48.482;2.332;2024-01-27T22:40:02;19.50;17.50;12.00
68841;PMS5003;55849;48.482;2.332;2024-01-27T22:43:05;23.75;21.50;13.00
68841;PMS5003;55849;48.482;2.332;2024-01-27T22:46:07;24.00;20.50;13.50
68841;PMS5003;55849;48.482;2.332;2024-01-27T22:49:10;18.50;16.00;12.50
68841;PMS5003;55849;48.482;2.332;2024-01-27T22:52:11;31.25;28.75;20.50
68841;PMS5003;55849;48.482;2.332;2024-01-27T22:55:13;42.75;32.25;22.00
68841;PMS5003;55849;48.482;2.332;2024-01-27T22:58:15;25.25;24.25;18.00
68841;PMS5003;55849;48.482;2.332;2024-01-27T23:01:16;28.25;21.50;13.50
68841;PMS5003;55849;48.482;2.332;2024-01-27T23:04:20;18.25;13.50;10.00
